Time;durP1;ratioP1;P1;durP2;ratioP2;P2;SDS_P1;SDS_P2;PMS_P1;PMS_P2;Temp;Humidity;BMP_temperature;BMP_pressure;BME280_temperature;BME280_humidity;BME280_pressure;Samples;Min_cycle;Max_cycle;Signal;HPM_P1;HPM_P2
2024/02/06 00:02:01;;;;;;;4.90;1.88;;;16.60;91.60;;;;;;5017937;28;20028;-45
2024/02/06 00:04:26;;;;;;;2.92;1.40;;;16.60;91.60;;;;;;5017786;28;20022;-45
2024/02/06 00:06:52;;;;;;;6.43;1.70;;;16.60;91.90;;;;;;5018185;28;20399;-45
2024/02/06 00:09:18;;;;;;;2.47;1.70;;;16.60;91.60;;;;;;5018125;28;20052;-45
2024/02/06 00:11:43;;;;;;;4.20;1.60;;;16.60;91.60;;;;;;5017939;28;20034;-46
2024/02/06 00:14:10;;;;;;;3.00;1.63;;;16.60;91.60;;;;;;5017665;28;20030;-45
2024/02/06 00:16:37;;;;;;;4.30;1.92;;;16.60;91.60;;;;;;5017872;28;20117;-45
2024/02/06 00:19:02;;;;;;;4.70;2.00;;;16.60;91.60;;;;;;5018161;28;20038;-46
2024/02/06 00:21:28;;;;;;;3.47;1.70;;;16.60;91.60;;;;;;5017752;28;20263;-45
2024/02/06 00:23:53;;;;;;;3.60;1.75;;;16.60;91.60;;;;;;5017605;28;20468;-45
2024/02/06 00:26:19;;;;;;;6.38;1.92;;;16.50;91.60;;;;;;5017971;28;20026;-46
2024/02/06 00:28:46;;;;;;;3.45;1.88;;;16.50;91.60;;;;;;5016608;28;20033;-45
2024/02/06 00:31:12;;;;;;;4.78;2.00;;;16.50;91.60;;;;;;5017737;28;20064;-45
2024/02/06 00:33:37;;;;;;;3.70;1.70;;;16.50;91.60;;;;;;5018070;28;20077;-45
2024/02/06 00:36:03;;;;;;;4.93;1.88;;;16.50;91.60;;;;;;5017571;28;20030;-44
2024/02/06 00:38:29;;;;;;;3.85;1.52;;;16.50;91.60;;;;;;5017584;28;20018;-46
2024/02/06 00:40:55;;;;;;;5.20;1.88;;;16.50;91.70;;;;;;5017628;28;20028;-45
2024/02/06 00:43:22;;;;;;;3.28;1.85;;;16.50;91.60;;;;;;5017560;28;20022;-44
2024/02/06 00:45:50;;;;;;;6.45;2.00;;;16.50;91.60;;;;;;5017754;28;20391;-45
2024/02/06 00:48:16;;;;;;;4.30;1.90;;;16.50;91.70;;;;;;5017576;28;20105;-45
2024/02/06 00:50:41;;;;;;;4.25;1.73;;;16.50;91.70;;;;;;5017562;28;20108;-46
2024/02/06 00:53:07;;;;;;;4.20;1.90;;;16.50;91.70;;;;;;5013854;28;20076;-45
2024/02/06 00:55:33;;;;;;;4.75;2.10;;;16.50;91.70;;;;;;5014165;28;20025;-45
2024/02/06 00:57:58;;;;;;;3.92;1.80;;;16.50;91.70;;;;;;5014353;28;20076;-45
2024/02/06 01:00:24;;;;;;;2.85;1.60;;;16.40;91.60;;;;;;5014347;28;20018;-45
2024/02/06 01:02:50;;;;;;;4.03;1.70;;;16.40;91.70;;;;;;5013076;28;20396;-45
2024/02/06 01:05:15;;;;;;;3.15;1.73;;;16.40;91.70;;;;;;5014157;28;20025;-44
2024/02/06 01:07:41;;;;;;;4.65;1.85;;;16.40;91.60;;;;;;5014192;28;20026;-45
2024/02/06 01:10:07;;;;;;;4.85;2.20;;;16.40;91.60;;;;;;5014246;28;20034;-46
2024/02/06 01:12:33;;;;;;;3.30;1.80;;;16.40;91.70;;;;;;5014352;28;20038;-45
2024/02/06 01:14:59;;;;;;;3.78;2.00;;;16.40;91.60;;;;;;5013877;28;20030;-44
2024/02/06 01:17:25;;;;;;;4.60;1.77;;;16.40;91.60;;;;;;5013758;28;20049;-45
2024/02/06 01:19:51;;;;;;;4.15;1.70;;;16.40;91.60;;;;;;5013826;28;20021;-45
2024/02/06 01:22:17;;;;;;;3.90;1.67;;;16.40;91.60;;;;;;5014078;28;20771;-45
2024/02/06 01:24:43;;;;;;;4.03;1.92;;;16.40;91.60;;;;;;5013505;28;20057;-45
2024/02/06 01:27:08;;;;;;;3.88;2.00;;;16.40;91.70;;;;;;5014103;28;20412;-45
2024/02/06 01:29:34;;;;;;;3.40;1.63;;;16.40;91.70;;;;;;5013694;28;20041;-45
2024/02/06 01:32:00;;;;;;;2.42;1.60;;;16.40;91.70;;;;;;5014595;28;20112;-45
2024/02/06 01:34:25;;;;;;;3.78;1.90;;;16.40;91.70;;;;;;5014629;28;20416;-45
2024/02/06 01:36:51;;;;;;;3.83;1.52;;;16.40;91.70;;;;;;5013993;28;20091;-45
2024/02/06 01:39:17;;;;;;;4.68;1.75;;;16.40;91.70;;;;;;5013341;28;20061;-45
2024/02/06 01:41:43;;;;;;;4.28;1.80;;;16.30;91.60;;;;;;5013490;28;20021;-45
2024/02/06 01:44:09;;;;;;;3.70;1.98;;;16.40;91.70;;;;;;5013361;28;20033;-46
2024/02/06 01:46:35;;;;;;;3.15;1.80;;;16.40;91.60;;;;;;5013815;28;20484;-45
2024/02/06 01:49:04;;;;;;;3.83;1.70;;;16.30;91.60;;;;;;5013881;28;20029;-44
2024/02/06 01:51:36;;;;;;;2.53;1.88;;;16.30;91.60;;;;;;5013762;28;20045;-46
2024/02/06 01:54:02;;;;;;;3.05;1.63;;;16.40;91.70;;;;;;5013425;28;20026;-44
2024/02/06 01:56:28;;;;;;;2.83;1.80;;;16.40;91.70;;;;;;5014002;28;20044;-45
2024/02/06 01:58:54;;;;;;;2.45;1.60;;;16.30;91.90;;;;;;5013129;28;20026;-44
2024/02/06 02:01:21;;;;;;;5.00;1.70;;;16.30;91.60;;;;;;5013017;28;20396;-45
2024/02/06 02:03:47;;;;;;;4.07;1.90;;;16.30;91.60;;;;;;5012943;28;20025;-45
2024/02/06 02:06:14;;;;;;;2.63;1.70;;;16.30;91.60;;;;;;5012922;28;20038;-45
2024/02/06 02:08:40;;;;;;;4.38;2.03;;;16.30;91.60;;;;;;5012656;28;20034;-45
2024/02/06 02:11:06;;;;;;;4.90;2.08;;;16.30;91.60;;;;;;5013177;28;20033;-45
2024/02/06 02:13:31;;;;;;;5.65;2.20;;;16.30;91.60;;;;;;5012937;28;20025;-45
2024/02/06 02:15:58;;;;;;;3.67;1.80;;;16.30;91.60;;;;;;5012538;28;20412;-45
2024/02/06 02:18:35;;;;;;;3.38;1.80;;;16.30;91.60;;;;;;5012882;28;20022;-45
2024/02/06 02:21:11;;;;;;;3.03;1.90;;;16.30;91.60;;;;;;5012709;28;20476;-45
2024/02/06 02:23:39;;;;;;;3.25;1.88;;;16.30;91.60;;;;;;5013031;28;20026;-45
2024/02/06 02:26:07;;;;;;;4.85;1.83;;;16.30;91.60;;;;;;5013009;28;20041;-44
2024/02/06 02:28:34;;;;;;;3.58;1.83;;;16.30;91.60;;;;;;5012746;28;20041;-45
2024/02/06 02:31:01;;;;;;;3.25;1.77;;;16.30;91.60;;;;;;5012432;28;20448;-46
2024/02/06 02:33:27;;;;;;;3.75;1.90;;;16.30;91.50;;;;;;5012739;28;20480;-45
2024/02/06 02:35:52;;;;;;;3.38;1.75;;;16.30;91.50;;;;;;5012547;28;20032;-45
2024/02/06 02:38:19;;;;;;;4.97;1.60;;;16.30;91.50;;;;;;5012911;28;20033;-45
2024/02/06 02:40:45;;;;;;;4.03;1.73;;;16.30;91.50;;;;;;5012984;28;20021;-46
2024/02/06 02:43:10;;;;;;;3.22;1.85;;;16.30;91.50;;;;;;5012722;28;20074;-44
2024/02/06 02:45:36;;;;;;;3.10;1.90;;;16.30;91.50;;;;;;5012117;28;20492;-45
2024/02/06 02:48:02;;;;;;;3.20;1.90;;;16.30;91.40;;;;;;5012575;28;20037;-45
2024/02/06 02:50:28;;;;;;;4.53;1.90;;;16.30;91.40;;;;;;5012232;28;20029;-45
2024/02/06 02:52:53;;;;;;;3.70;1.90;;;16.30;91.40;;;;;;5012154;28;20026;-45
2024/02/06 02:55:19;;;;;;;2.30;1.45;;;16.30;91.40;;;;;;5012325;28;20080;-45
2024/02/06 02:57:45;;;;;;;4.85;2.05;;;16.30;91.40;;;;;;5012165;28;20117;-45
2024/02/06 03:00:11;;;;;;;3.35;1.90;;;16.30;91.40;;;;;;5012206;28;20053;-44
2024/02/06 03:02:37;;;;;;;4.05;1.80;;;16.20;91.40;;;;;;5011971;28;20029;-45
2024/02/06 03:05:03;;;;;;;3.05;1.60;;;16.20;91.40;;;;;;5012043;28;20080;-45
2024/02/06 03:07:29;;;;;;;3.92;1.70;;;16.20;91.40;;;;;;5012188;28;20456;-45
2024/02/06 03:09:55;;;;;;;2.85;1.70;;;16.20;91.40;;;;;;5012277;28;20036;-46
2024/02/06 03:12:20;;;;;;;3.50;1.65;;;16.20;91.40;;;;;;5012039;28;20452;-45
2024/02/06 03:14:46;;;;;;;3.05;1.60;;;16.20;91.40;;;;;;5011004;28;20018;-45
2024/02/06 03:17:11;;;;;;;2.60;1.55;;;16.20;91.40;;;;;;5012119;28;20056;-45
2024/02/06 03:19:37;;;;;;;4.35;1.83;;;16.20;91.40;;;;;;5012398;28;20531;-45
2024/02/06 03:22:03;;;;;;;2.92;1.80;;;16.20;91.40;;;;;;5012121;28;20022;-45
2024/02/06 03:24:28;;;;;;;3.22;1.88;;;16.20;91.40;;;;;;5011583;28;20134;-44
2024/02/06 03:26:55;;;;;;;4.80;1.70;;;16.20;91.40;;;;;;5011454;28;20033;-45
2024/02/06 03:29:21;;;;;;;2.83;1.50;;;16.20;91.40;;;;;;5011546;28;20500;-42
2024/02/06 03:31:47;;;;;;;4.72;1.67;;;16.20;91.40;;;;;;5011648;28;20026;-44
2024/02/06 03:34:14;;;;;;;3.47;1.52;;;16.20;91.40;;;;;;5010728;28;20037;-44
2024/02/06 03:36:43;;;;;;;2.75;1.55;;;16.20;91.40;;;;;;5011465;28;20030;-45
2024/02/06 03:39:12;;;;;;;3.45;1.63;;;16.20;91.30;;;;;;5011416;28;20539;-45
2024/02/06 03:41:38;;;;;;;4.32;1.90;;;16.20;91.30;;;;;;5011503;28;20026;-45
2024/02/06 03:44:05;;;;;;;3.58;1.70;;;16.20;91.30;;;;;;5011391;28;20026;-45
2024/02/06 03:46:31;;;;;;;2.83;1.55;;;16.20;91.30;;;;;;5011580;28;20156;-45
2024/02/06 03:48:59;;;;;;;5.40;1.60;;;16.20;91.30;;;;;;5011544;28;20101;-44
2024/02/06 03:51:25;;;;;;;3.00;1.58;;;16.20;91.30;;;;;;5011736;28;20388;-45
2024/02/06 03:53:50;;;;;;;3.63;1.80;;;16.20;91.30;;;;;;5011452;28;20484;-44
2024/02/06 03:56:17;;;;;;;3.65;1.65;;;16.20;91.30;;;;;;5011678;28;20026;-46
2024/02/06 03:58:42;;;;;;;3.22;1.90;;;16.20;91.20;;;;;;5011136;28;20022;-45
2024/02/06 04:01:08;;;;;;;2.90;1.75;;;16.20;91.20;;;;;;5011473;28;20030;-45
2024/02/06 04:03:34;;;;;;;3.67;1.70;;;16.20;91.20;;;;;;5011954;28;20065;-45
2024/02/06 04:06:00;;;;;;;2.80;1.75;;;16.10;91.20;;;;;;5011331;28;20080;-45
2024/02/06 04:08:26;;;;;;;4.47;1.80;;;16.10;91.20;;;;;;5011163;28;20021;-46
2024/02/06 04:10:54;;;;;;;3.85;1.55;;;16.20;91.20;;;;;;5010329;28;20032;-45
2024/02/06 04:13:19;;;;;;;3.30;1.60;;;16.20;91.20;;;;;;5011266;28;20034;-45
2024/02/06 04:15:45;;;;;;;5.50;1.98;;;16.10;91.20;;;;;;5011275;28;20084;-44
2024/02/06 04:18:11;;;;;;;3.42;2.00;;;16.10;91.10;;;;;;5011455;28;20026;-45
2024/02/06 04:20:36;;;;;;;3.05;1.50;;;16.10;91.10;;;;;;5011218;28;20025;-45
2024/02/06 04:23:03;;;;;;;3.25;1.73;;;16.20;91.20;;;;;;5011110;28;20053;-45
2024/02/06 04:25:28;;;;;;;3.78;1.80;;;16.20;91.20;;;;;;5011000;28;20041;-45
2024/02/06 04:27:54;;;;;;;4.05;1.90;;;16.10;91.10;;;;;;5011605;28;20030;-44
2024/02/06 04:30:20;;;;;;;2.67;1.67;;;16.10;91.10;;;;;;5014810;28;20018;-45
2024/02/06 04:32:48;;;;;;;2.20;1.58;;;16.10;91.10;;;;;;5014880;28;20381;-44
2024/02/06 04:35:14;;;;;;;3.28;1.60;;;16.10;91.10;;;;;;5014860;28;20033;-44
2024/02/06 04:37:40;;;;;;;3.53;1.67;;;16.10;91.10;;;;;;5014681;28;20029;-43
2024/02/06 04:40:06;;;;;;;2.75;1.65;;;16.10;91.10;;;;;;5015242;28;20396;-44
2024/02/06 04:42:32;;;;;;;3.28;1.70;;;16.10;91.10;;;;;;5014651;28;20068;-43
2024/02/06 04:44:58;;;;;;;5.93;1.90;;;16.10;91.10;;;;;;5014537;28;20503;-44
2024/02/06 04:47:23;;;;;;;3.03;1.77;;;16.10;91.10;;;;;;5014885;28;20026;-44
2024/02/06 04:49:49;;;;;;;4.18;1.77;;;16.10;91.10;;;;;;5015171;28;20029;-44
2024/02/06 04:52:15;;;;;;;4.65;1.75;;;16.10;91.10;;;;;;5014393;28;20058;-44
2024/02/06 04:54:40;;;;;;;2.70;1.48;;;16.10;91.10;;;;;;5015203;28;20480;-44
2024/02/06 04:57:06;;;;;;;3.50;1.77;;;16.10;91.10;;;;;;5015285;28;20433;-44
2024/02/06 04:59:33;;;;;;;4.03;1.58;;;16.10;91.10;;;;;;5014334;28;20030;-43
2024/02/06 05:01:58;;;;;;;3.13;1.90;;;16.10;91.10;;;;;;5014782;28;20030;-44
2024/02/06 05:04:24;;;;;;;3.10;1.88;;;16.10;91.10;;;;;;5014158;28;20022;-44
2024/02/06 05:06:49;;;;;;;3.63;1.75;;;16.10;91.10;;;;;;5014104;28;20502;-45
2024/02/06 05:09:15;;;;;;;2.13;1.67;;;16.10;91.10;;;;;;5014599;28;20030;-45
2024/02/06 05:11:41;;;;;;;2.90;1.83;;;16.10;91.00;;;;;;5014041;28;20476;-45
2024/02/06 05:14:08;;;;;;;2.97;1.98;;;16.10;91.00;;;;;;5014496;28;20034;-45
2024/02/06 05:16:34;;;;;;;3.13;2.05;;;16.10;91.00;;;;;;5013669;28;20041;-44
2024/02/06 05:18:59;;;;;;;3.83;1.90;;;16.10;91.00;;;;;;5013987;28;20498;-45
2024/02/06 05:21:25;;;;;;;4.43;1.70;;;16.00;90.90;;;;;;5014220;28;20045;-45
2024/02/06 05:23:50;;;;;;;2.75;1.85;;;16.00;90.90;;;;;;5013641;28;20111;-45
2024/02/06 05:26:16;;;;;;;3.92;1.65;;;16.00;90.90;;;;;;5014374;28;20037;-45
2024/02/06 05:28:44;;;;;;;3.83;1.92;;;16.00;90.90;;;;;;5013675;28;20054;-45
2024/02/06 05:31:09;;;;;;;4.38;1.63;;;16.00;90.90;;;;;;5013729;28;20029;-45
2024/02/06 05:33:35;;;;;;;2.97;1.70;;;16.00;90.90;;;;;;5013911;28;20033;-45
2024/02/06 05:36:01;;;;;;;4.13;1.73;;;16.00;90.90;;;;;;5013595;28;20377;-45
2024/02/06 05:38:27;;;;;;;3.28;1.67;;;16.00;90.90;;;;;;5013014;28;20092;-45
2024/02/06 05:40:53;;;;;;;4.25;1.75;;;15.90;90.90;;;;;;5013445;28;20102;-45
2024/02/06 05:43:19;;;;;;;2.58;1.60;;;15.90;90.90;;;;;;5012949;28;20466;-45
2024/02/06 05:45:45;;;;;;;3.63;2.03;;;15.90;90.90;;;;;;5013400;28;20036;-45
2024/02/06 05:48:10;;;;;;;4.43;2.05;;;15.80;90.90;;;;;;5013544;28;20022;-45
2024/02/06 05:50:36;;;;;;;4.32;1.73;;;15.80;90.90;;;;;;5013548;28;20030;-45
2024/02/06 05:53:02;;;;;;;2.60;1.85;;;15.70;91.00;;;;;;5013741;28;20018;-44
2024/02/06 05:55:28;;;;;;;2.75;1.88;;;15.60;91.00;;;;;;5013651;28;20030;-45
2024/02/06 05:57:54;;;;;;;4.72;1.95;;;15.60;91.10;;;;;;5012938;28;20389;-45
2024/02/06 06:00:20;;;;;;;2.72;1.90;;;15.50;91.20;;;;;;5013068;28;20029;-45
2024/02/06 06:02:45;;;;;;;5.72;2.10;;;15.40;91.30;;;;;;5013403;28;20048;-45
2024/02/06 06:05:11;;;;;;;2.95;1.88;;;15.30;91.40;;;;;;5013620;28;20455;-45
2024/02/06 06:07:37;;;;;;;5.93;1.88;;;15.30;91.50;;;;;;5013054;28;20100;-45
2024/02/06 06:10:03;;;;;;;4.82;1.67;;;15.10;91.60;;;;;;5013122;28;20026;-45
2024/02/06 06:12:29;;;;;;;3.10;1.75;;;15.10;91.60;;;;;;5013050;28;20025;-45
2024/02/06 06:14:54;;;;;;;3.55;2.10;;;15.00;91.70;;;;;;5012595;28;20145;-44
2024/02/06 06:17:20;;;;;;;3.35;1.90;;;14.90;91.80;;;;;;5012656;28;20018;-45
2024/02/06 06:19:45;;;;;;;3.42;1.90;;;14.80;91.90;;;;;;5012672;28;20030;-45
2024/02/06 06:22:12;;;;;;;4.15;1.80;;;14.80;92.10;;;;;;5013243;28;20369;-45
2024/02/06 06:24:38;;;;;;;3.17;1.80;;;14.70;92.20;;;;;;5012404;28;20396;-45
2024/02/06 06:27:04;;;;;;;4.43;1.65;;;14.60;92.30;;;;;;5012508;28;20026;-46
2024/02/06 06:29:30;;;;;;;3.47;1.63;;;14.50;92.40;;;;;;5013316;28;20017;-45
2024/02/06 06:31:56;;;;;;;2.40;1.60;;;14.40;92.50;;;;;;5012749;28;20396;-45
2024/02/06 06:34:22;;;;;;;3.38;1.92;;;14.30;92.60;;;;;;5011045;28;20049;-45
2024/02/06 06:36:47;;;;;;;3.30;1.75;;;14.30;92.70;;;;;;5012347;28;20032;-45
2024/02/06 06:39:13;;;;;;;3.40;1.90;;;14.20;92.80;;;;;;5012275;28;20018;-44
2024/02/06 06:41:39;;;;;;;4.05;2.00;;;14.10;92.90;;;;;;5012847;28;20097;-45
2024/02/06 06:44:04;;;;;;;4.00;1.90;;;14.10;93.00;;;;;;5012792;28;20377;-45
2024/02/06 06:46:30;;;;;;;4.55;1.92;;;14.00;93.10;;;;;;5013133;28;20384;-45
2024/02/06 06:48:56;;;;;;;3.33;1.75;;;14.00;93.20;;;;;;5012615;28;20033;-45
2024/02/06 06:51:21;;;;;;;4.00;1.70;;;13.90;93.30;;;;;;5011979;28;20021;-45
2024/02/06 06:53:47;;;;;;;2.78;1.85;;;13.90;93.40;;;;;;5012238;28;20026;-46
2024/02/06 06:56:17;;;;;;;4.03;2.00;;;13.80;93.50;;;;;;5012279;28;20034;-45
2024/02/06 06:58:43;;;;;;;3.33;2.17;;;13.80;93.60;;;;;;5012211;28;20534;-45
2024/02/06 07:01:08;;;;;;;3.40;1.75;;;13.70;93.60;;;;;;5012145;28;20038;-43
2024/02/06 07:03:34;;;;;;;2.97;1.52;;;13.70;93.70;;;;;;5012209;28;20077;-45
2024/02/06 07:06:00;;;;;;;3.00;1.63;;;13.70;93.80;;;;;;5012032;28;20026;-45
2024/02/06 07:08:25;;;;;;;2.97;1.75;;;13.60;93.80;;;;;;5012262;28;20383;-45
2024/02/06 07:10:51;;;;;;;2.58;1.40;;;13.60;93.90;;;;;;5012455;28;20025;-45
2024/02/06 07:13:17;;;;;;;3.33;1.60;;;13.60;94.00;;;;;;5012360;28;20018;-44
2024/02/06 07:15:42;;;;;;;2.83;1.85;;;13.50;94.10;;;;;;5011620;28;20018;-45
2024/02/06 07:18:08;;;;;;;3.28;2.00;;;13.50;94.10;;;;;;5012414;28;20049;-46
2024/02/06 07:20:34;;;;;;;2.90;1.80;;;13.50;94.20;;;;;;5013109;28;20435;-45
2024/02/06 07:22:59;;;;;;;3.65;1.88;;;13.50;94.20;;;;;;5012262;28;20026;-45
2024/02/06 07:25:25;;;;;;;5.20;1.80;;;13.50;94.20;;;;;;5012096;28;20033;-45
2024/02/06 07:27:51;;;;;;;5.82;1.80;;;13.50;94.20;;;;;;5012060;28;20053;-45
2024/02/06 07:30:17;;;;;;;2.95;1.67;;;13.50;94.30;;;;;;5012450;28;20021;-45
2024/02/06 07:32:42;;;;;;;4.45;1.60;;;13.50;94.30;;;;;;5011962;28;20021;-45
2024/02/06 07:35:08;;;;;;;2.15;1.60;;;13.60;94.30;;;;;;5011560;28;20030;-46
2024/02/06 07:37:34;;;;;;;2.95;1.60;;;13.60;94.30;;;;;;5011493;28;20113;-45
2024/02/06 07:39:59;;;;;;;1.98;1.50;;;13.60;94.30;;;;;;5011780;28;20088;-45
2024/02/06 07:42:25;;;;;;;2.55;1.80;;;13.60;94.30;;;;;;5011558;28;20053;-45
2024/02/06 07:44:51;;;;;;;2.30;1.50;;;13.60;94.20;;;;;;5011966;28;20028;-45
2024/02/06 07:47:16;;;;;;;2.67;1.67;;;13.60;94.20;;;;;;5011487;28;20037;-45
2024/02/06 07:49:42;;;;;;;3.60;1.52;;;13.60;94.20;;;;;;5011353;28;20380;-45
2024/02/06 07:52:08;;;;;;;2.95;1.67;;;13.70;94.20;;;;;;5011967;28;20024;-45
2024/02/06 07:54:33;;;;;;;2.67;1.70;;;13.80;94.20;;;;;;5011519;28;20447;-45
2024/02/06 07:56:59;;;;;;;5.07;2.08;;;13.70;94.20;;;;;;5011507;28;20484;-44
2024/02/06 07:59:24;;;;;;;2.80;1.60;;;13.80;94.10;;;;;;5011614;28;20408;-44
2024/02/06 08:01:50;;;;;;;2.08;1.60;;;13.80;94.10;;;;;;5013656;28;20080;-45
2024/02/06 08:04:16;;;;;;;3.63;1.48;;;13.80;94.10;;;;;;5015428;28;20072;-45
2024/02/06 08:06:41;;;;;;;2.50;1.73;;;13.80;94.10;;;;;;5015187;28;20080;-44
2024/02/06 08:09:08;;;;;;;2.10;1.23;;;13.90;94.00;;;;;;5015169;28;20034;-45
2024/02/06 08:11:33;;;;;;;3.75;1.60;;;13.90;94.00;;;;;;5015618;28;20030;-45
2024/02/06 08:14:01;;;;;;;2.20;1.17;;;14.00;94.00;;;;;;5016282;28;20446;-45
2024/02/06 08:16:26;;;;;;;3.40;1.60;;;14.00;94.00;;;;;;5015930;28;20029;-44
2024/02/06 08:18:52;;;;;;;2.20;1.23;;;14.00;93.90;;;;;;5015493;28;20026;-45
2024/02/06 08:21:18;;;;;;;2.38;1.30;;;14.10;93.90;;;;;;5015404;28;20080;-44
2024/02/06 08:23:44;;;;;;;3.72;1.40;;;14.10;93.90;;;;;;5014982;28;20030;-45
2024/02/06 08:26:09;;;;;;;2.33;1.35;;;14.10;93.90;;;;;;5015323;28;20041;-46
2024/02/06 08:28:35;;;;;;;3.25;1.15;;;14.10;93.80;;;;;;5014868;28;20030;-45
2024/02/06 08:31:01;;;;;;;3.80;1.42;;;14.20;93.80;;;;;;5014966;28;20100;-45
2024/02/06 08:33:27;;;;;;;2.30;1.25;;;14.20;93.80;;;;;;5015182;28;20106;-45
2024/02/06 08:35:53;;;;;;;2.88;1.60;;;14.20;93.80;;;;;;5015276;28;20079;-45
2024/02/06 08:38:19;;;;;;;2.33;1.23;;;14.30;93.70;;;;;;5015443;28;20388;-45
2024/02/06 08:40:47;;;;;;;2.65;1.27;;;14.30;93.70;;;;;;5015295;28;20052;-45
2024/02/06 08:43:13;;;;;;;1.75;1.10;;;14.30;93.70;;;;;;5015466;28;20022;-44
2024/02/06 08:45:38;;;;;;;2.28;1.30;;;14.40;93.60;;;;;;5014562;28;20028;-45
2024/02/06 08:48:04;;;;;;;1.98;1.20;;;14.40;93.60;;;;;;5014513;28;20030;-45
2024/02/06 08:50:33;;;;;;;2.72;1.08;;;14.50;93.60;;;;;;5014626;28;20029;-45
2024/02/06 08:53:01;;;;;;;2.10;1.30;;;14.50;93.50;;;;;;5014582;28;20442;-45
2024/02/06 08:55:27;;;;;;;4.82;1.50;;;14.50;93.50;;;;;;5014647;28;20029;-45
2024/02/06 08:57:53;;;;;;;1.55;1.13;;;14.60;93.50;;;;;;5014567;28;20026;-46
2024/02/06 09:00:19;;;;;;;2.13;1.50;;;14.60;93.40;;;;;;5014332;28;20555;-45
2024/02/06 09:02:44;;;;;;;3.35;1.20;;;14.60;93.30;;;;;;5014893;28;20075;-45
2024/02/06 09:05:10;;;;;;;2.28;1.10;;;14.60;93.30;;;;;;5014309;28;20355;-44
2024/02/06 09:07:36;;;;;;;1.50;1.10;;;14.70;93.30;;;;;;5015204;28;20103;-44
2024/02/06 09:10:04;;;;;;;2.00;1.08;;;14.70;93.20;;;;;;5014970;28;20104;-45
2024/02/06 09:12:29;;;;;;;1.77;1.00;;;14.80;93.20;;;;;;5013561;28;20026;-45
2024/02/06 09:15:00;;;;;;;1.55;1.05;;;14.80;93.20;;;;;;5013654;28;20034;-45
2024/02/06 09:17:26;;;;;;;1.75;1.10;;;14.80;93.10;;;;;;5014735;28;20416;-45
2024/02/06 09:19:52;;;;;;;2.35;1.30;;;14.80;93.10;;;;;;5013915;28;20037;-45
2024/02/06 09:22:17;;;;;;;1.17;1.00;;;14.90;93.10;;;;;;5014308;28;20021;-45
2024/02/06 09:24:43;;;;;;;2.17;1.00;;;14.90;93.00;;;;;;5014068;28;20038;-45
2024/02/06 09:27:09;;;;;;;2.05;0.98;;;14.90;93.00;;;;;;5012861;28;20022;-45
2024/02/06 09:29:34;;;;;;;2.28;1.10;;;15.00;93.00;;;;;;5014127;28;20447;-44
2024/02/06 09:32:00;;;;;;;1.58;1.00;;;15.00;92.90;;;;;;5013938;28;20054;-45
2024/02/06 09:34:26;;;;;;;1.25;0.90;;;15.00;92.90;;;;;;5013809;28;20061;-44
2024/02/06 09:36:51;;;;;;;2.42;0.85;;;15.10;92.90;;;;;;5013722;28;20032;-45
2024/02/06 09:39:17;;;;;;;1.27;0.80;;;15.10;92.90;;;;;;5013479;28;20025;-45
2024/02/06 09:41:47;;;;;;;2.38;0.80;;;15.10;92.80;;;;;;5013424;28;20026;-45
2024/02/06 09:44:14;;;;;;;3.05;0.73;;;15.10;92.40;;;;;;5013583;28;20030;-45
2024/02/06 09:46:40;;;;;;;3.80;0.60;;;15.10;92.10;;;;;;5013309;28;20392;-46
2024/02/06 09:49:07;;;;;;;2.13;0.63;;;15.10;91.80;;;;;;5013331;28;20551;-45
2024/02/06 09:51:39;;;;;;;2.05;0.80;;;15.10;91.60;;;;;;5013291;28;20127;-45
2024/02/06 09:54:07;;;;;;;3.30;1.00;;;15.10;91.50;;;;;;5013274;28;20041;-44
2024/02/06 09:56:34;;;;;;;3.30;0.90;;;15.10;91.40;;;;;;5013033;28;20037;-44
2024/02/06 09:59:05;;;;;;;1.17;0.52;;;15.10;91.30;;;;;;5013074;28;20025;-45
2024/02/06 10:01:32;;;;;;;2.35;0.80;;;15.10;91.20;;;;;;5013137;28;20029;-46
2024/02/06 10:03:58;;;;;;;1.60;0.60;;;15.10;91.10;;;;;;5013320;28;20026;-44
2024/02/06 10:06:26;;;;;;;1.52;0.60;;;15.10;91.00;;;;;;5013332;28;20022;-45
2024/02/06 10:08:52;;;;;;;2.83;0.80;;;15.10;90.90;;;;;;5013403;28;20029;-45
2024/02/06 10:11:20;;;;;;;1.38;0.70;;;15.10;90.90;;;;;;5013118;28;20034;-45
2024/02/06 10:13:46;;;;;;;2.15;0.90;;;15.20;90.90;;;;;;5013079;28;20449;-45
2024/02/06 10:16:12;;;;;;;2.47;0.60;;;15.20;91.00;;;;;;5012868;28;20096;-45
2024/02/06 10:18:55;;;;;;;2.35;0.77;;;15.20;91.00;;;;;;5013100;28;20025;-45
2024/02/06 10:21:21;;;;;;;2.47;0.65;;;15.20;91.00;;;;;;5013362;28;20488;-44
2024/02/06 10:23:48;;;;;;;1.83;0.80;;;15.20;91.00;;;;;;5012746;28;20477;-45
2024/02/06 10:26:19;;;;;;;4.18;0.90;;;15.20;91.10;;;;;;5012877;28;20111;-45
2024/02/06 10:28:46;;;;;;;1.40;0.70;;;15.30;91.10;;;;;;5012966;28;20036;-44
2024/02/06 10:31:12;;;;;;;1.05;0.50;;;15.30;91.20;;;;;;5012599;28;20028;-44
2024/02/06 10:33:38;;;;;;;4.03;0.77;;;15.30;91.20;;;;;;5012508;28;20033;-43
2024/02/06 10:36:04;;;;;;;2.60;0.60;;;15.40;91.20;;;;;;5012678;28;20101;-45
2024/02/06 10:38:30;;;;;;;1.05;0.50;;;15.40;91.20;;;;;;5012376;28;20033;-43
2024/02/06 10:40:57;;;;;;;2.50;0.88;;;15.40;91.20;;;;;;5012930;28;20029;-43
2024/02/06 10:43:30;;;;;;;1.20;0.60;;;15.40;91.20;;;;;;5012409;28;20025;-45
2024/02/06 10:46:01;;;;;;;1.55;0.60;;;15.40;91.20;;;;;;5012271;28;20477;-45
2024/02/06 10:48:28;;;;;;;2.10;0.70;;;15.50;91.20;;;;;;5012475;28;20082;-45
2024/02/06 10:50:58;;;;;;;4.45;0.75;;;15.50;91.20;;;;;;5012338;28;20018;-43
2024/02/06 10:53:25;;;;;;;0.85;0.50;;;15.50;91.20;;;;;;5012806;28;20559;-45
2024/02/06 10:55:58;;;;;;;1.50;0.75;;;15.50;91.20;;;;;;5012147;28;20431;-44
2024/02/06 10:58:41;;;;;;;3.45;0.73;;;15.60;91.20;;;;;;5012246;28;20044;-45
2024/02/06 11:01:10;;;;;;;2.13;0.90;;;15.60;91.20;;;;;;5012311;28;20040;-42
2024/02/06 11:03:49;;;;;;;1.50;0.60;;;15.70;91.20;;;;;;5012243;28;20033;-44
2024/02/06 11:06:26;;;;;;;2.58;0.70;;;15.60;91.10;;;;;;5011998;28;20492;-45
2024/02/06 11:08:58;;;;;;;3.33;0.65;;;15.70;91.20;;;;;;5010577;28;20042;-45
2024/02/06 11:11:24;;;;;;;1.85;0.60;;;15.70;91.10;;;;;;5012313;28;20114;-45
2024/02/06 11:13:51;;;;;;;0.95;0.63;;;15.70;91.10;;;;;;5012207;28;20026;-44
2024/02/06 11:16:22;;;;;;;1.58;0.73;;;15.80;91.10;;;;;;5011812;28;20084;-44
2024/02/06 11:19:21;;;;;;;1.17;0.55;;;15.80;91.10;;;;;;5010606;28;20065;-41
2024/02/06 11:21:55;;;;;;;2.65;0.50;;;15.80;91.10;;;;;;5012799;28;20036;-45
2024/02/06 11:24:22;;;;;;;1.02;0.57;;;15.80;91.00;;;;;;5011898;28;20026;-45
2024/02/06 11:26:48;;;;;;;1.77;0.63;;;15.80;91.00;;;;;;5011847;28;20037;-44
2024/02/06 11:29:15;;;;;;;3.40;0.60;;;15.80;91.00;;;;;;5013109;28;20029;-45
2024/02/06 11:31:41;;;;;;;2.28;0.70;;;15.80;91.00;;;;;;5013508;28;20022;-45
2024/02/06 11:34:14;;;;;;;1.60;0.60;;;15.90;91.00;;;;;;5011561;28;20022;-43
2024/02/06 11:36:40;;;;;;;2.13;0.68;;;15.90;91.00;;;;;;5011407;28;20057;-44
2024/02/06 11:39:10;;;;;;;1.73;0.50;;;15.90;90.90;;;;;;5011735;28;20097;-42
2024/02/06 11:41:36;;;;;;;1.52;0.40;;;15.90;90.90;;;;;;5011513;28;20040;-44
2024/02/06 11:44:12;;;;;;;1.30;0.73;;;15.90;90.90;;;;;;5011651;28;20025;-43
2024/02/06 11:46:49;;;;;;;1.80;0.63;;;15.90;91.00;;;;;;5011619;28;20033;-45
2024/02/06 11:49:22;;;;;;;2.85;0.88;;;16.00;91.00;;;;;;5011784;28;20056;-45
2024/02/06 11:51:55;;;;;;;0.77;0.38;;;16.00;90.90;;;;;;5011523;28;20400;-45
2024/02/06 11:54:26;;;;;;;1.75;0.70;;;16.00;90.90;;;;;;5012148;28;20026;-45
2024/02/06 11:56:53;;;;;;;2.20;0.70;;;16.00;90.90;;;;;;5012421;28;20030;-45
2024/02/06 11:59:19;;;;;;;3.13;0.82;;;16.00;90.90;;;;;;5011766;28;20032;-45
2024/02/06 12:01:44;;;;;;;2.33;0.93;;;16.10;90.90;;;;;;5011867;28;20022;-44
2024/02/06 12:04:10;;;;;;;1.65;0.80;;;16.10;90.80;;;;;;5011543;28;20109;-43
2024/02/06 12:06:36;;;;;;;2.15;0.55;;;16.10;90.80;;;;;;5011360;28;20050;-45
2024/02/06 12:09:08;;;;;;;1.80;0.50;;;16.10;91.10;;;;;;5011191;28;20105;-41
2024/02/06 12:11:45;;;;;;;1.40;0.60;;;16.10;90.80;;;;;;5011671;28;20026;-45
2024/02/06 12:14:11;;;;;;;2.25;0.60;;;16.10;90.80;;;;;;5011522;28;20447;-44
2024/02/06 12:16:39;;;;;;;1.50;0.68;;;16.10;90.80;;;;;;5010946;28;20511;-45
2024/02/06 12:19:06;;;;;;;2.38;0.60;;;16.10;90.80;;;;;;5011107;28;20018;-44
2024/02/06 12:21:32;;;;;;;1.23;0.70;;;16.10;90.70;;;;;;5011225;28;20110;-45
2024/02/06 12:24:04;;;;;;;2.33;0.63;;;16.20;90.80;;;;;;5011116;28;20366;-45
2024/02/06 12:26:31;;;;;;;1.35;0.60;;;16.10;90.70;;;;;;5011499;28;20393;-43
2024/02/06 12:29:03;;;;;;;1.60;0.65;;;16.10;90.70;;;;;;5011004;28;20388;-45
2024/02/06 12:31:33;;;;;;;1.50;0.57;;;16.20;90.70;;;;;;5011164;28;20105;-44
2024/02/06 12:34:00;;;;;;;2.97;0.80;;;16.20;90.70;;;;;;5011462;28;20029;-44
2024/02/06 12:36:26;;;;;;;3.55;0.90;;;16.20;90.70;;;;;;5010955;28;20073;-44
2024/02/06 12:38:53;;;;;;;2.50;0.50;;;16.20;90.70;;;;;;5010957;28;20034;-44
2024/02/06 12:41:19;;;;;;;1.02;0.60;;;16.20;91.00;;;;;;5011231;28;20034;-45
2024/02/06 12:43:48;;;;;;;1.77;0.70;;;16.20;90.70;;;;;;5011432;28;20033;-45
2024/02/06 12:46:14;;;;;;;2.03;0.70;;;16.20;90.70;;;;;;5011082;28;20018;-45